sensor_id;sensor_type;location;lat;lon;timestamp;pressure;altitude;pressure_sealevel;temperature;humidity
67052;BME280;53957;47.222;18.670;2023-12-20T00:00:53;100314.72;;;-1.86;100.00
67052;BME280;53957;47.222;18.670;2023-12-20T00:03:56;100321.16;;;-1.89;100.00
67052;BME280;53957;47.222;18.670;2023-12-20T00:06:59;100330.78;;;-1.89;100.00
67052;BME280;53957;47.222;18.670;2023-12-20T00:10:02;100327.16;;;-1.95;100.00
67052;BME280;53957;47.222;18.670;2023-12-20T00:13:06;100313.09;;;-1.87;100.00
67052;BME280;53957;47.222;18.670;2023-12-20T00:16:10;100303.66;;;-1.95;100.00
67052;BME280;53957;47.222;18.670;2023-12-20T00:19:13;100299.81;;;-1.92;100.00
67052;BME280;53957;47.222;18.670;2023-12-20T00:22:16;100303.00;;;-2.11;100.00
67052;BME280;53957;47.222;18.670;2023-12-20T00:25:19;100288.97;;;-1.96;100.00
67052;BME280;53957;47.222;18.670;2023-12-20T00:28:22;100295.97;;;-1.97;100.00
67052;BME280;53957;47.222;18.670;2023-12-20T00:31:26;100289.16;;;-1.91;100.00
67052;BME280;53957;47.222;18.670;2023-12-20T00:34:28;100286.97;;;-1.87;100.00
67052;BME280;53957;47.222;18.670;2023-12-20T00:37:31;100275.88;;;-1.89;100.00
67052;BME280;53957;47.222;18.670;2023-12-20T00:40:35;100272.06;;;-1.87;100.00
67052;BME280;53957;47.222;18.670;2023-12-20T00:43:38;100266.25;;;-1.89;100.00
67052;BME280;53957;47.222;18.670;2023-12-20T00:46:41;100253.75;;;-2.00;100.00
67052;BME280;53957;47.222;18.670;2023-12-20T00:49:44;100249.38;;;-1.86;100.00
67052;BME280;53957;47.222;18.670;2023-12-20T00:52:48;100251.94;;;-1.93;100.00
67052;BME280;53957;47.222;18.670;2023-12-20T00:55:51;100249.94;;;-1.84;100.00
67052;BME280;53957;47.222;18.670;2023-12-20T00:58:54;100247.75;;;-1.87;100.00
67052;BME280;53957;47.222;18.670;2023-12-20T01:01:57;100249.16;;;-1.78;100.00
67052;BME280;53957;47.222;18.670;2023-12-20T01:05:00;100240.09;;;-1.82;100.00
67052;BME280;53957;47.222;18.670;2023-12-20T01:08:04;100220.22;;;-1.76;100.00
67052;BME280;53957;47.222;18.670;2023-12-20T01:11:07;100223.59;;;-1.89;100.00
67052;BME280;53957;47.222;18.670;2023-12-20T01:14:10;100221.41;;;-1.92;100.00
67052;BME280;53957;47.222;18.670;2023-12-20T01:17:13;100205.69;;;-2.06;100.00
67052;BME280;53957;47.222;18.670;2023-12-20T01:20:16;100214.53;;;-2.00;100.00
67052;BME280;53957;47.222;18.670;2023-12-20T01:23:20;100207.91;;;-1.96;100.00
67052;BME280;53957;47.222;18.670;2023-12-20T01:26:23;100199.66;;;-1.93;100.00
67052;BME280;53957;47.222;18.670;2023-12-20T01:29:26;100193.63;;;-2.07;100.00
67052;BME280;53957;47.222;18.670;2023-12-20T01:32:28;100196.25;;;-1.93;100.00
67052;BME280;53957;47.222;18.670;2023-12-20T01:35:32;100187.19;;;-2.11;100.00
67052;BME280;53957;47.222;18.670;2023-12-20T01:38:35;100179.94;;;-2.09;100.00
67052;BME280;53957;47.222;18.670;2023-12-20T01:41:38;100177.72;;;-2.19;100.00
67052;BME280;53957;47.222;18.670;2023-12-20T01:44:41;100173.09;;;-2.10;100.00
67052;BME280;53957;47.222;18.670;2023-12-20T01:47:44;100169.69;;;-2.04;100.00
67052;BME280;53957;47.222;18.670;2023-12-20T01:50:48;100173.91;;;-2.03;100.00
67052;BME280;53957;47.222;18.670;2023-12-20T01:53:51;100172.87;;;-2.29;100.00
67052;BME280;53957;47.222;18.670;2023-12-20T01:56:53;100169.44;;;-2.36;100.00
67052;BME280;53957;47.222;18.670;2023-12-20T01:59:57;100159.44;;;-2.19;100.00
67052;BME280;53957;47.222;18.670;2023-12-20T02:03:01;100157.44;;;-2.03;100.00
67052;BME280;53957;47.222;18.670;2023-12-20T02:06:05;100150.16;;;-2.35;100.00
67052;BME280;53957;47.222;18.670;2023-12-20T02:09:09;100134.91;;;-2.31;100.00
67052;BME280;53957;47.222;18.670;2023-12-20T02:12:12;100137.53;;;-2.24;100.00
67052;BME280;53957;47.222;18.670;2023-12-20T07:07:27;99989.19;;;-2.22;100.00
67052;BME280;53957;47.222;18.670;2023-12-20T07:10:30;100005.50;;;-2.34;100.00
67052;BME280;53957;47.222;18.670;2023-12-20T07:13:33;100011.53;;;-2.27;100.00
67052;BME280;53957;47.222;18.670;2023-12-20T07:16:37;100009.09;;;-2.35;100.00
67052;BME280;53957;47.222;18.670;2023-12-20T07:19:40;100011.50;;;-2.13;100.00
67052;BME280;53957;47.222;18.670;2023-12-20T07:22:44;100010.91;;;-2.22;100.00
67052;BME280;53957;47.222;18.670;2023-12-20T07:25:47;100008.31;;;-2.35;100.00
67052;BME280;53957;47.222;18.670;2023-12-20T07:28:50;99994.47;;;-2.49;100.00
67052;BME280;53957;47.222;18.670;2023-12-20T07:31:53;99996.62;;;-2.19;100.00
67052;BME280;53957;47.222;18.670;2023-12-20T07:34:57;99999.84;;;-2.24;100.00
67052;BME280;53957;47.222;18.670;2023-12-20T07:38:00;100000.69;;;-2.23;100.00
67052;BME280;53957;47.222;18.670;2023-12-20T07:41:05;100002.25;;;-2.16;100.00
67052;BME280;53957;47.222;18.670;2023-12-20T07:44:08;99998.84;;;-2.16;100.00
67052;BME280;53957;47.222;18.670;2023-12-20T07:47:12;100009.50;;;-2.24;100.00
67052;BME280;53957;47.222;18.670;2023-12-20T07:50:18;99998.25;;;-2.18;100.00
67052;BME280;53957;47.222;18.670;2023-12-20T07:53:21;99999.81;;;-2.04;100.00
67052;BME280;53957;47.222;18.670;2023-12-20T07:56:24;99999.84;;;-2.11;100.00
67052;BME280;53957;47.222;18.670;2023-12-20T07:59:27;99999.47;;;-2.21;100.00
67052;BME280;53957;47.222;18.670;2023-12-20T08:02:34;99996.25;;;-2.23;100.00
67052;BME280;53957;47.222;18.670;2023-12-20T08:05:38;99985.16;;;-2.12;100.00
67052;BME280;53957;47.222;18.670;2023-12-20T08:08:42;99980.69;;;-1.98;100.00
67052;BME280;53957;47.222;18.670;2023-12-20T08:11:48;99975.69;;;-1.92;100.00
67052;BME280;53957;47.222;18.670;2023-12-20T08:14:51;99968.00;;;-1.87;100.00
67052;BME280;53957;47.222;18.670;2023-12-20T08:17:54;99981.69;;;-1.92;100.00
67052;BME280;53957;47.222;18.670;2023-12-20T08:20:57;99982.06;;;-1.75;100.00
67052;BME280;53957;47.222;18.670;2023-12-20T08:24:00;99982.53;;;-1.98;100.00
67052;BME280;53957;47.222;18.670;2023-12-20T08:27:04;99987.69;;;-1.78;100.00
67052;BME280;53957;47.222;18.670;2023-12-20T08:30:12;99988.50;;;-1.84;100.00
67052;BME280;53957;47.222;18.670;2023-12-20T08:33:15;99992.09;;;-1.72;100.00
67052;BME280;53957;47.222;18.670;2023-12-20T08:36:19;99995.13;;;-1.75;100.00
67052;BME280;53957;47.222;18.670;2023-12-20T08:39:25;99996.34;;;-1.84;100.00
67052;BME280;53957;47.222;18.670;2023-12-20T08:42:28;99986.88;;;-1.79;100.00
67052;BME280;53957;47.222;18.670;2023-12-20T08:45:33;100001.66;;;-1.46;100.00
67052;BME280;53957;47.222;18.670;2023-12-20T08:48:37;100001.66;;;-1.52;100.00
67052;BME280;53957;47.222;18.670;2023-12-20T08:51:40;100006.84;;;-1.39;100.00
67052;BME280;53957;47.222;18.670;2023-12-20T08:54:44;100014.53;;;-1.44;100.00
67052;BME280;53957;47.222;18.670;2023-12-20T08:57:47;100011.47;;;-1.41;100.00
67052;BME280;53957;47.222;18.670;2023-12-20T09:00:52;100011.97;;;-1.19;100.00
67052;BME280;53957;47.222;18.670;2023-12-20T09:03:55;100003.06;;;-1.43;100.00
67052;BME280;53957;47.222;18.670;2023-12-20T09:07:00;100004.00;;;-1.31;100.00
67052;BME280;53957;47.222;18.670;2023-12-20T09:10:04;99997.66;;;-1.16;100.00
67052;BME280;53957;47.222;18.670;2023-12-20T09:13:10;99990.28;;;-1.26;100.00
67052;BME280;53957;47.222;18.670;2023-12-20T09:16:13;99987.81;;;-1.59;100.00
67052;BME280;53957;47.222;18.670;2023-12-20T09:19:19;99983.91;;;-1.43;100.00
67052;BME280;53957;47.222;18.670;2023-12-20T09:22:22;99968.31;;;-1.25;100.00
67052;BME280;53957;47.222;18.670;2023-12-20T09:25:26;99962.84;;;-1.17;100.00
67052;BME280;53957;47.222;18.670;2023-12-20T09:28:29;99965.50;;;-0.91;100.00
67052;BME280;53957;47.222;18.670;2023-12-20T09:31:33;99960.16;;;-1.10;100.00
67052;BME280;53957;47.222;18.670;2023-12-20T09:34:36;99948.22;;;-1.24;100.00
67052;BME280;53957;47.222;18.670;2023-12-20T09:37:40;99950.75;;;-1.11;100.00
67052;BME280;53957;47.222;18.670;2023-12-20T09:40:47;99954.84;;;-0.97;100.00
67052;BME280;53957;47.222;18.670;2023-12-20T09:43:54;99944.78;;;-0.68;100.00
67052;BME280;53957;47.222;18.670;2023-12-20T09:46:57;99945.72;;;-0.87;100.00
67052;BME280;53957;47.222;18.670;2023-12-20T09:50:01;99935.78;;;-0.78;100.00
67052;BME280;53957;47.222;18.670;2023-12-20T09:53:08;99934.78;;;-0.77;100.00
67052;BME280;53957;47.222;18.670;2023-12-20T09:56:12;99929.97;;;-0.81;100.00
67052;BME280;53957;47.222;18.670;2023-12-20T09:59:16;99926.69;;;-0.76;100.00
67052;BME280;53957;47.222;18.670;2023-12-20T10:02:21;99927.22;;;-0.42;100.00
67052;BME280;53957;47.222;18.670;2023-12-20T10:05:28;99929.72;;;-0.28;100.00
67052;BME280;53957;47.222;18.670;2023-12-20T10:08:32;99941.19;;;-0.29;100.00
67052;BME280;53957;47.222;18.670;2023-12-20T10:11:37;99934.34;;;-0.12;100.00
67052;BME280;53957;47.222;18.670;2023-12-20T10:14:40;99936.97;;;-0.12;100.00
67052;BME280;53957;47.222;18.670;2023-12-20T10:17:44;99926.63;;;-0.25;100.00
67052;BME280;53957;47.222;18.670;2023-12-20T10:20:47;99915.53;;;-0.46;100.00
67052;BME280;53957;47.222;18.670;2023-12-20T10:23:51;99937.12;;;-0.25;100.00
67052;BME280;53957;47.222;18.670;2023-12-20T10:27:04;99934.63;;;-0.20;100.00
67052;BME280;53957;47.222;18.670;2023-12-20T10:30:08;99919.34;;;0.14;100.00
67052;BME280;53957;47.222;18.670;2023-12-20T10:33:11;99913.44;;;0.49;100.00
67052;BME280;53957;47.222;18.670;2023-12-20T10:36:15;99916.31;;;1.02;100.00
67052;BME280;53957;47.222;18.670;2023-12-20T10:39:17;99913.84;;;0.76;100.00
67052;BME280;53957;47.222;18.670;2023-12-20T10:42:25;99927.03;;;1.12;100.00
67052;BME280;53957;47.222;18.670;2023-12-20T10:45:28;99913.00;;;1.18;100.00
67052;BME280;53957;47.222;18.670;2023-12-20T10:48:32;99917.81;;;1.33;100.00
67052;BME280;53957;47.222;18.670;2023-12-20T10:51:36;99921.81;;;1.59;100.00
67052;BME280;53957;47.222;18.670;2023-12-20T10:54:40;99917.44;;;1.77;100.00
67052;BME280;53957;47.222;18.670;2023-12-20T10:57:45;99922.69;;;1.77;100.00
67052;BME280;53957;47.222;18.670;2023-12-20T11:00:59;99901.25;;;2.09;100.00
67052;BME280;53957;47.222;18.670;2023-12-20T11:04:08;99887.75;;;2.34;100.00
67052;BME280;53957;47.222;18.670;2023-12-20T11:07:21;99863.87;;;2.87;100.00
67052;BME280;53957;47.222;18.670;2023-12-20T11:10:30;99867.28;;;3.21;100.00
67052;BME280;53957;47.222;18.670;2023-12-20T11:13:39;99858.34;;;3.22;100.00
67052;BME280;53957;47.222;18.670;2023-12-20T11:16:43;99859.50;;;4.21;100.00
67052;BME280;53957;47.222;18.670;2023-12-20T11:48:47;99810.34;;;5.91;100.00
67052;BME280;53957;47.222;18.670;2023-12-20T11:51:51;99798.25;;;6.41;100.00
67052;BME280;53957;47.222;18.670;2023-12-20T11:54:54;99800.56;;;7.05;100.00
67052;BME280;53957;47.222;18.670;2023-12-20T11:57:58;99797.13;;;7.04;100.00
67052;BME280;53957;47.222;18.670;2023-12-20T12:01:01;99801.25;;;7.41;100.00
67052;BME280;53957;47.222;18.670;2023-12-20T12:04:11;99803.53;;;6.83;100.00
67052;BME280;53957;47.222;18.670;2023-12-20T12:07:14;99791.12;;;6.47;100.00
67052;BME280;53957;47.222;18.670;2023-12-20T12:10:17;99801.09;;;7.07;100.00
67052;BME280;53957;47.222;18.670;2023-12-20T12:13:20;99793.84;;;7.38;100.00
67052;BME280;53957;47.222;18.670;2023-12-20T12:16:24;99789.69;;;7.12;100.00
67052;BME280;53957;47.222;18.670;2023-12-20T12:19:27;99788.56;;;7.38;100.00
67052;BME280;53957;47.222;18.670;2023-12-20T12:22:32;99786.97;;;7.27;100.00
67052;BME280;53957;47.222;18.670;2023-12-20T12:25:36;99789.63;;;7.32;100.00
67052;BME280;53957;47.222;18.670;2023-12-20T12:28:45;99784.72;;;7.60;100.00
67052;BME280;53957;47.222;18.670;2023-12-20T12:31:48;99789.75;;;7.67;100.00
67052;BME280;53957;47.222;18.670;2023-12-20T12:34:51;99790.84;;;7.61;100.00
67052;BME280;53957;47.222;18.670;2023-12-20T12:37:54;99790.09;;;7.50;100.00
67052;BME280;53957;47.222;18.670;2023-12-20T12:40:58;99787.75;;;7.33;100.00
67052;BME280;53957;47.222;18.670;2023-12-20T12:44:01;99782.56;;;6.97;100.00
67052;BME280;53957;47.222;18.670;2023-12-20T12:47:16;99779.16;;;6.86;100.00
67052;BME280;53957;47.222;18.670;2023-12-20T12:50:19;99790.31;;;6.67;100.00
67052;BME280;53957;47.222;18.670;2023-12-20T12:53:22;99798.78;;;6.59;100.00
67052;BME280;53957;47.222;18.670;2023-12-20T12:56:25;99795.34;;;6.27;100.00
67052;BME280;53957;47.222;18.670;2023-12-20T12:59:29;99800.38;;;6.19;100.00
67052;BME280;53957;47.222;18.670;2023-12-20T13:02:31;99794.00;;;5.99;100.00
67052;BME280;53957;47.222;18.670;2023-12-20T13:05:35;99795.50;;;5.90;100.00
67052;BME280;53957;47.222;18.670;2023-12-20T13:08:42;99795.78;;;5.78;100.00
67052;BME280;53957;47.222;18.670;2023-12-20T13:11:47;99796.53;;;5.68;100.00
67052;BME280;53957;47.222;18.670;2023-12-20T13:14:50;99798.69;;;5.82;100.00
67052;BME280;53957;47.222;18.670;2023-12-20T13:17:53;99795.50;;;5.79;100.00
67052;BME280;53957;47.222;18.670;2023-12-20T13:20:56;99792.19;;;5.41;100.00
67052;BME280;53957;47.222;18.670;2023-12-20T13:23:59;99789.88;;;5.60;100.00
67052;BME280;53957;47.222;18.670;2023-12-20T13:27:02;99783.78;;;5.50;100.00
67052;BME280;53957;47.222;18.670;2023-12-20T13:30:06;99791.88;;;5.27;100.00
67052;BME280;53957;47.222;18.670;2023-12-20T13:33:11;99783.97;;;5.38;100.00
67052;BME280;53957;47.222;18.670;2023-12-20T13:36:14;99781.41;;;5.58;100.00
67052;BME280;53957;47.222;18.670;2023-12-20T13:39:18;99792.75;;;5.43;100.00
67052;BME280;53957;47.222;18.670;2023-12-20T13:42:21;99796.88;;;5.24;100.00
67052;BME280;53957;47.222;18.670;2023-12-20T13:45:24;99796.06;;;5.18;100.00
67052;BME280;53957;47.222;18.670;2023-12-20T13:55:52;99801.81;;;5.10;100.00
67052;BME280;53957;47.222;18.670;2023-12-20T13:58:56;99802.03;;;4.98;100.00
67052;BME280;53957;47.222;18.670;2023-12-20T14:01:58;99801.16;;;4.87;100.00
67052;BME280;53957;47.222;18.670;2023-12-20T14:05:04;99805.84;;;4.75;100.00
67052;BME280;53957;47.222;18.670;2023-12-20T14:08:07;99807.38;;;4.65;100.00
67052;BME280;53957;47.222;18.670;2023-12-20T14:11:12;99810.53;;;4.67;100.00
67052;BME280;53957;47.222;18.670;2023-12-20T14:14:16;99821.47;;;4.81;100.00
67052;BME280;53957;47.222;18.670;2023-12-20T14:17:19;99814.47;;;4.65;100.00
67052;BME280;53957;47.222;18.670;2023-12-20T14:20:22;99822.41;;;4.65;100.00
67052;BME280;53957;47.222;18.670;2023-12-20T14:23:26;99813.56;;;4.49;100.00
67052;BME280;53957;47.222;18.670;2023-12-20T14:26:29;99827.59;;;4.49;100.00
67052;BME280;53957;47.222;18.670;2023-12-20T14:29:32;99815.88;;;4.40;100.00
67052;BME280;53957;47.222;18.670;2023-12-20T14:32:36;99828.53;;;4.11;100.00
67052;BME280;53957;47.222;18.670;2023-12-20T14:35:41;99820.56;;;4.33;100.00
67052;BME280;53957;47.222;18.670;2023-12-20T14:38:47;99825.44;;;4.46;100.00
67052;BME280;53957;47.222;18.670;2023-12-20T14:41:52;99836.84;;;4.25;100.00
67052;BME280;53957;47.222;18.670;2023-12-20T14:44:57;99835.31;;;4.01;100.00
67052;BME280;53957;47.222;18.670;2023-12-20T14:48:00;99838.91;;;4.17;100.00
67052;BME280;53957;47.222;18.670;2023-12-20T14:51:03;99833.00;;;4.38;100.00
67052;BME280;53957;47.222;18.670;2023-12-20T14:54:06;99829.62;;;4.42;100.00
67052;BME280;53957;47.222;18.670;2023-12-20T14:57:13;99829.44;;;4.22;100.00
67052;BME280;53957;47.222;18.670;2023-12-20T15:00:16;99816.97;;;3.90;100.00
67052;BME280;53957;47.222;18.670;2023-12-20T15:03:20;99824.31;;;3.87;100.00
67052;BME280;53957;47.222;18.670;2023-12-20T15:06:23;99834.50;;;4.01;100.00
67052;BME280;53957;47.222;18.670;2023-12-20T15:09:28;99839.69;;;3.91;100.00
67052;BME280;53957;47.222;18.670;2023-12-20T15:12:32;99842.19;;;4.02;100.00
67052;BME280;53957;47.222;18.670;2023-12-20T15:15:36;99845.34;;;4.05;100.00
67052;BME280;53957;47.222;18.670;2023-12-20T15:18:40;99853.16;;;4.16;100.00
67052;BME280;53957;47.222;18.670;2023-12-20T15:21:43;99841.78;;;4.16;100.00
67052;BME280;53957;47.222;18.670;2023-12-20T15:24:50;99845.88;;;4.29;100.00
67052;BME280;53957;47.222;18.670;2023-12-20T15:27:54;99858.50;;;4.27;100.00
67052;BME280;53957;47.222;18.670;2023-12-20T15:30:58;99854.84;;;4.28;100.00
67052;BME280;53957;47.222;18.670;2023-12-20T15:34:01;99845.00;;;4.23;100.00
67052;BME280;53957;47.222;18.670;2023-12-20T15:37:04;99841.19;;;4.36;100.00
67052;BME280;53957;47.222;18.670;2023-12-20T15:40:08;99854.56;;;4.29;100.00
67052;BME280;53957;47.222;18.670;2023-12-20T15:43:15;99856.87;;;4.21;100.00
67052;BME280;53957;47.222;18.670;2023-12-20T15:46:18;99860.66;;;4.02;100.00
67052;BME280;53957;47.222;18.670;2023-12-20T15:49:22;99863.97;;;3.93;100.00
67052;BME280;53957;47.222;18.670;2023-12-20T15:52:25;99859.44;;;3.88;100.00
67052;BME280;53957;47.222;18.670;2023-12-20T19:22:41;99998.44;;;0.11;100.00
67052;BME280;53957;47.222;18.670;2023-12-20T19:25:45;100001.00;;;0.36;100.00
67052;BME280;53957;47.222;18.670;2023-12-20T19:28:48;100004.34;;;0.43;100.00
67052;BME280;53957;47.222;18.670;2023-12-20T19:31:51;100001.78;;;0.37;100.00
67052;BME280;53957;47.222;18.670;2023-12-20T19:34:57;99994.50;;;0.39;100.00
67052;BME280;53957;47.222;18.670;2023-12-20T19:38:00;99993.81;;;0.62;100.00
67052;BME280;53957;47.222;18.670;2023-12-20T19:41:03;100006.81;;;0.87;100.00
67052;BME280;53957;47.222;18.670;2023-12-20T19:44:06;99999.81;;;0.81;100.00
67052;BME280;53957;47.222;18.670;2023-12-20T19:47:11;100005.84;;;1.00;100.00
67052;BME280;53957;47.222;18.670;2023-12-20T19:50:15;100006.97;;;0.74;100.00
67052;BME280;53957;47.222;18.670;2023-12-20T19:53:19;100015.47;;;0.57;100.00
67052;BME280;53957;47.222;18.670;2023-12-20T19:56:23;100008.84;;;0.85;100.00
67052;BME280;53957;47.222;18.670;2023-12-20T19:59:25;100005.78;;;0.88;100.00
67052;BME280;53957;47.222;18.670;2023-12-20T20:02:28;100013.59;;;0.76;100.00
67052;BME280;53957;47.222;18.670;2023-12-20T20:05:33;100019.03;;;0.82;100.00
67052;BME280;53957;47.222;18.670;2023-12-20T20:08:35;100010.31;;;0.81;100.00
67052;BME280;53957;47.222;18.670;2023-12-20T20:11:39;100018.34;;;0.86;100.00
67052;BME280;53957;47.222;18.670;2023-12-20T20:14:42;100022.91;;;0.91;100.00
67052;BME280;53957;47.222;18.670;2023-12-20T20:17:45;100028.69;;;0.81;100.00
67052;BME280;53957;47.222;18.670;2023-12-20T20:20:48;100025.31;;;0.92;100.00
67052;BME280;53957;47.222;18.670;2023-12-20T20:23:51;100030.06;;;1.14;100.00
67052;BME280;53957;47.222;18.670;2023-12-20T20:26:54;100026.16;;;1.05;100.00
67052;BME280;53957;47.222;18.670;2023-12-20T20:29:57;100033.13;;;1.11;100.00
67052;BME280;53957;47.222;18.670;2023-12-20T20:33:00;100029.84;;;1.16;100.00
67052;BME280;53957;47.222;18.670;2023-12-20T20:36:04;100030.56;;;0.92;100.00
67052;BME280;53957;47.222;18.670;2023-12-20T20:39:09;100028.69;;;1.11;100.00
67052;BME280;53957;47.222;18.670;2023-12-20T20:42:15;100030.56;;;0.92;100.00
67052;BME280;53957;47.222;18.670;2023-12-20T20:45:18;100038.31;;;0.87;100.00
67052;BME280;53957;47.222;18.670;2023-12-20T20:48:21;100037.41;;;1.24;100.00
67052;BME280;53957;47.222;18.670;2023-12-20T20:51:34;100040.91;;;1.06;100.00
67052;BME280;53957;47.222;18.670;2023-12-20T20:54:37;100041.88;;;0.93;100.00
67052;BME280;53957;47.222;18.670;2023-12-20T20:57:40;100042.09;;;0.91;100.00
67052;BME280;53957;47.222;18.670;2023-12-20T21:00:44;100032.44;;;1.93;100.00
67052;BME280;53957;47.222;18.670;2023-12-20T21:03:47;100040.75;;;1.43;100.00
67052;BME280;53957;47.222;18.670;2023-12-20T21:06:50;100032.09;;;1.42;100.00
67052;BME280;53957;47.222;18.670;2023-12-20T21:09:53;100028.81;;;1.17;100.00
67052;BME280;53957;47.222;18.670;2023-12-20T21:12:57;100026.44;;;1.27;100.00
67052;BME280;53957;47.222;18.670;2023-12-20T21:16:00;100019.25;;;1.22;100.00
67052;BME280;53957;47.222;18.670;2023-12-20T21:19:03;100026.81;;;1.42;100.00
67052;BME280;53957;47.222;18.670;2023-12-20T21:22:09;100024.03;;;1.25;100.00
67052;BME280;53957;47.222;18.670;2023-12-20T21:25:12;100031.78;;;1.74;100.00
67052;BME280;53957;47.222;18.670;2023-12-20T21:28:15;100019.72;;;1.43;100.00
67052;BME280;53957;47.222;18.670;2023-12-20T21:31:18;100019.03;;;1.36;100.00
67052;BME280;53957;47.222;18.670;2023-12-20T21:34:22;100022.47;;;1.48;100.00
67052;BME280;53957;47.222;18.670;2023-12-20T21:37:25;100016.41;;;1.24;100.00
67052;BME280;53957;47.222;18.670;2023-12-20T21:40:28;100016.00;;;0.96;100.00
67052;BME280;53957;47.222;18.670;2023-12-20T21:43:32;100016.87;;;0.90;100.00
67052;BME280;53957;47.222;18.670;2023-12-20T21:46:35;100021.53;;;0.88;100.00
67052;BME280;53957;47.222;18.670;2023-12-20T21:49:38;100022.72;;;0.74;100.00
67052;BME280;53957;47.222;18.670;2023-12-20T21:52:41;100026.22;;;0.56;100.00
67052;BME280;53957;47.222;18.670;2023-12-20T21:55:44;100021.50;;;0.27;100.00
67052;BME280;53957;47.222;18.670;2023-12-20T21:58:47;100025.03;;;0.14;100.00
67052;BME280;53957;47.222;18.670;2023-12-20T22:01:51;100021.13;;;0.05;100.00
67052;BME280;53957;47.222;18.670;2023-12-20T22:04:55;100017.16;;;-0.04;100.00
67052;BME280;53957;47.222;18.670;2023-12-20T22:07:57;100011.50;;;-0.01;100.00
67052;BME280;53957;47.222;18.670;2023-12-20T22:11:02;100012.28;;;-0.01;100.00
67052;BME280;53957;47.222;18.670;2023-12-20T22:14:05;100018.88;;;0.27;100.00
67052;BME280;53957;47.222;18.670;2023-12-20T22:17:08;100007.09;;;0.79;100.00
67052;BME280;53957;47.222;18.670;2023-12-20T22:20:11;100010.72;;;0.96;100.00
67052;BME280;53957;47.222;18.670;2023-12-20T22:23:15;100012.41;;;1.21;100.00
67052;BME280;53957;47.222;18.670;2023-12-20T22:26:20;100001.69;;;1.35;100.00
67052;BME280;53957;47.222;18.670;2023-12-20T22:29:23;100018.38;;;1.52;100.00
67052;BME280;53957;47.222;18.670;2023-12-20T22:32:28;100016.09;;;1.44;100.00
67052;BME280;53957;47.222;18.670;2023-12-20T22:35:32;100017.56;;;1.52;100.00
67052;BME280;53957;47.222;18.670;2023-12-20T22:38:35;100004.44;;;1.64;100.00
67052;BME280;53957;47.222;18.670;2023-12-20T22:41:38;100003.41;;;1.88;100.00
67052;BME280;53957;47.222;18.670;2023-12-20T22:44:41;100002.16;;;2.03;100.00
67052;BME280;53957;47.222;18.670;2023-12-20T22:47:45;100008.28;;;2.08;100.00
67052;BME280;53957;47.222;18.670;2023-12-20T22:50:51;100003.22;;;2.31;100.00
67052;BME280;53957;47.222;18.670;2023-12-20T22:53:55;100009.38;;;2.48;100.00
67052;BME280;53957;47.222;18.670;2023-12-20T22:56:59;100006.44;;;2.62;100.00
67052;BME280;53957;47.222;18.670;2023-12-20T23:00:02;100006.25;;;2.80;100.00
67052;BME280;53957;47.222;18.670;2023-12-20T23:03:06;100010.22;;;2.66;100.00
67052;BME280;53957;47.222;18.670;2023-12-20T23:06:09;100008.34;;;2.78;100.00
67052;BME280;53957;47.222;18.670;2023-12-20T23:09:12;99999.25;;;2.86;100.00
67052;BME280;53957;47.222;18.670;2023-12-20T23:12:15;99988.88;;;2.96;100.00
67052;BME280;53957;47.222;18.670;2023-12-20T23:15:19;99987.53;;;2.94;100.00
67052;BME280;53957;47.222;18.670;2023-12-20T23:18:22;99982.22;;;3.05;100.00
67052;BME280;53957;47.222;18.670;2023-12-20T23:21:25;99970.31;;;3.03;100.00
67052;BME280;53957;47.222;18.670;2023-12-20T23:24:29;99964.25;;;3.19;100.00
67052;BME280;53957;47.222;18.670;2023-12-20T23:27:32;99959.16;;;3.30;100.00
67052;BME280;53957;47.222;18.670;2023-12-20T23:30:35;99961.22;;;3.28;100.00
67052;BME280;53957;47.222;18.670;2023-12-20T23:33:40;99966.88;;;3.36;100.00
67052;BME280;53957;47.222;18.670;2023-12-20T23:36:43;99957.13;;;3.37;100.00
67052;BME280;53957;47.222;18.670;2023-12-20T23:39:46;99953.44;;;3.55;100.00
67052;BME280;53957;47.222;18.670;2023-12-20T23:42:49;99945.06;;;3.58;100.00
67052;BME280;53957;47.222;18.670;2023-12-20T23:45:53;99956.31;;;3.53;100.00
67052;BME280;53957;47.222;18.670;2023-12-20T23:48:56;99942.56;;;3.68;100.00
67052;BME280;53957;47.222;18.670;2023-12-20T23:51:59;99958.28;;;3.80;100.00
67052;BME280;53957;47.222;18.670;2023-12-20T23:55:03;99946.25;;;3.90;100.00
67052;BME280;53957;47.222;18.670;2023-12-20T23:58:07;99944.25;;;3.97;100.00
